Tampa, Florida
Traffic Map
Current Weather Conditions
Tampa, Florida
Scattered Clouds
Scattered Clouds
87°
Feels Like: 93°
Wind Chill: 87° Ceiling: Unl
Heat Index: 93° Visibility: 10mi
Dew Point: 72° Wind: 8mph
Humidity: 61% Direction: 250° (WSW)
Pressure: 30.02in Gusts: 0mph
Raw Report DataKTPA 301553Z 25007KT 10SM SCT030 31/22 A3002 RMK AO2 SLP165 T03060222
Traffic Incident Summary
Active as of:
Severity:
Category:
InformationThere was an issue retrieving the traffic information for this location. Please try a different location or try again shortly.
Advertisements
Track Severe Weather on mobile